Terminal Aerodrome Forecast
Issued by NWS

Home | Current Version | Previous Version | Text Only | Print | Product List | Glossary On
Versions: 1 2 3 4 5 6 7 8 9 10 11 12 13 14 15 16 17 18 19 20 21
525
FTUS44 KTSA 071156 AAA
TAFXNA
TAF AMD
KXNA 071156Z 0712/0812 06004KT P6SM OVC050 PROB30 0721/0803 P6SM
      -FZDZSN OVC050
     FM080300 36005KT P6SM OVC050
     FM080900 35005KT P6SM SKC=

USA.gov is the U.S. government's official web portal to all federal, state and local government web resources and services.